sensor_id;sensor_type;location;lat;lon;timestamp;P1;durP1;ratioP1;P2;durP2;ratioP2
8632;SDS011;4354;49.832;10.746;2023-07-20T00:00:07;10.60;;;5.15;;
8632;SDS011;4354;49.832;10.746;2023-07-20T00:02:34;12.93;;;5.30;;
8632;SDS011;4354;49.832;10.746;2023-07-20T00:05:01;13.23;;;5.60;;
8632;SDS011;4354;49.832;10.746;2023-07-20T00:07:28;12.68;;;5.65;;
8632;SDS011;4354;49.832;10.746;2023-07-20T00:09:55;7.22;;;4.75;;
8632;SDS011;4354;49.832;10.746;2023-07-20T00:12:22;10.82;;;5.18;;
8632;SDS011;4354;49.832;10.746;2023-07-20T00:14:48;8.45;;;5.43;;
8632;SDS011;4354;49.832;10.746;2023-07-20T00:17:15;7.80;;;4.72;;
8632;SDS011;4354;49.832;10.746;2023-07-20T00:19:42;6.63;;;4.57;;
8632;SDS011;4354;49.832;10.746;2023-07-20T00:22:09;5.82;;;4.70;;
8632;SDS011;4354;49.832;10.746;2023-07-20T00:24:36;7.60;;;4.50;;
8632;SDS011;4354;49.832;10.746;2023-07-20T00:27:03;6.55;;;4.65;;
8632;SDS011;4354;49.832;10.746;2023-07-20T00:29:30;8.25;;;5.40;;
8632;SDS011;4354;49.832;10.746;2023-07-20T00:31:56;7.75;;;5.40;;
8632;SDS011;4354;49.832;10.746;2023-07-20T00:34:24;5.10;;;4.35;;
8632;SDS011;4354;49.832;10.746;2023-07-20T00:36:51;8.52;;;5.07;;
8632;SDS011;4354;49.832;10.746;2023-07-20T00:39:18;8.18;;;5.22;;
8632;SDS011;4354;49.832;10.746;2023-07-20T00:41:45;6.07;;;4.47;;
8632;SDS011;4354;49.832;10.746;2023-07-20T00:44:11;10.25;;;4.88;;
8632;SDS011;4354;49.832;10.746;2023-07-20T00:46:38;7.60;;;5.03;;
8632;SDS011;4354;49.832;10.746;2023-07-20T00:49:08;7.27;;;5.03;;
8632;SDS011;4354;49.832;10.746;2023-07-20T00:51:35;7.72;;;5.22;;
8632;SDS011;4354;49.832;10.746;2023-07-20T00:54:01;9.25;;;5.30;;
8632;SDS011;4354;49.832;10.746;2023-07-20T00:56:29;7.20;;;5.03;;
8632;SDS011;4354;49.832;10.746;2023-07-20T00:58:56;8.55;;;4.68;;
8632;SDS011;4354;49.832;10.746;2023-07-20T01:01:23;8.77;;;5.28;;
8632;SDS011;4354;49.832;10.746;2023-07-20T01:03:50;5.25;;;4.78;;
8632;SDS011;4354;49.832;10.746;2023-07-20T01:12:05;8.90;;;5.17;;
8632;SDS011;4354;49.832;10.746;2023-07-20T01:14:39;5.70;;;4.90;;
8632;SDS011;4354;49.832;10.746;2023-07-20T01:17:06;9.93;;;5.77;;
8632;SDS011;4354;49.832;10.746;2023-07-20T01:19:33;8.87;;;5.77;;
8632;SDS011;4354;49.832;10.746;2023-07-20T01:22:05;11.10;;;5.70;;
8632;SDS011;4354;49.832;10.746;2023-07-20T01:25:09;8.20;;;5.50;;
8632;SDS011;4354;49.832;10.746;2023-07-20T01:33:17;14.13;;;5.60;;
8632;SDS011;4354;49.832;10.746;2023-07-20T01:35:46;7.77;;;5.40;;
8632;SDS011;4354;49.832;10.746;2023-07-20T01:38:16;13.90;;;5.60;;
8632;SDS011;4354;49.832;10.746;2023-07-20T01:40:44;7.63;;;5.50;;
8632;SDS011;4354;49.832;10.746;2023-07-20T01:43:12;9.57;;;5.33;;
8632;SDS011;4354;49.832;10.746;2023-07-20T01:45:39;10.43;;;5.63;;
8632;SDS011;4354;49.832;10.746;2023-07-20T01:48:06;9.50;;;5.77;;
8632;SDS011;4354;49.832;10.746;2023-07-20T01:50:33;10.20;;;5.63;;
8632;SDS011;4354;49.832;10.746;2023-07-20T01:53:01;8.13;;;5.57;;
8632;SDS011;4354;49.832;10.746;2023-07-20T01:55:28;6.77;;;6.03;;
8632;SDS011;4354;49.832;10.746;2023-07-20T01:57:54;9.23;;;6.30;;
8632;SDS011;4354;49.832;10.746;2023-07-20T02:00:21;11.67;;;5.70;;
8632;SDS011;4354;49.832;10.746;2023-07-20T02:02:50;11.80;;;5.80;;
8632;SDS011;4354;49.832;10.746;2023-07-20T02:05:17;11.83;;;6.30;;
8632;SDS011;4354;49.832;10.746;2023-07-20T02:07:44;13.60;;;6.07;;
8632;SDS011;4354;49.832;10.746;2023-07-20T02:10:10;7.60;;;5.33;;
8632;SDS011;4354;49.832;10.746;2023-07-20T02:12:37;9.50;;;5.80;;
8632;SDS011;4354;49.832;10.746;2023-07-20T02:15:04;9.97;;;5.57;;
8632;SDS011;4354;49.832;10.746;2023-07-20T02:17:31;16.00;;;6.17;;
8632;SDS011;4354;49.832;10.746;2023-07-20T02:19:58;12.60;;;6.27;;
8632;SDS011;4354;49.832;10.746;2023-07-20T02:22:25;12.10;;;5.80;;
8632;SDS011;4354;49.832;10.746;2023-07-20T02:24:52;10.60;;;5.77;;
8632;SDS011;4354;49.832;10.746;2023-07-20T02:27:18;11.80;;;5.83;;
8632;SDS011;4354;49.832;10.746;2023-07-20T02:29:45;9.13;;;6.23;;
8632;SDS011;4354;49.832;10.746;2023-07-20T02:32:12;9.37;;;6.70;;
8632;SDS011;4354;49.832;10.746;2023-07-20T02:34:39;7.23;;;6.23;;
8632;SDS011;4354;49.832;10.746;2023-07-20T02:37:06;12.00;;;6.30;;
8632;SDS011;4354;49.832;10.746;2023-07-20T02:39:36;12.53;;;7.30;;
8632;SDS011;4354;49.832;10.746;2023-07-20T02:42:03;14.63;;;7.77;;
8632;SDS011;4354;49.832;10.746;2023-07-20T02:44:30;13.23;;;7.30;;
8632;SDS011;4354;49.832;10.746;2023-07-20T02:46:56;13.37;;;7.30;;
8632;SDS011;4354;49.832;10.746;2023-07-20T02:49:23;10.50;;;7.73;;
8632;SDS011;4354;49.832;10.746;2023-07-20T02:51:50;10.23;;;8.00;;
8632;SDS011;4354;49.832;10.746;2023-07-20T02:54:17;9.87;;;7.13;;
8632;SDS011;4354;49.832;10.746;2023-07-20T02:56:44;10.20;;;6.83;;
8632;SDS011;4354;49.832;10.746;2023-07-20T02:59:10;12.27;;;7.30;;
8632;SDS011;4354;49.832;10.746;2023-07-20T03:01:37;12.27;;;7.70;;
8632;SDS011;4354;49.832;10.746;2023-07-20T03:04:04;12.10;;;8.10;;
8632;SDS011;4354;49.832;10.746;2023-07-20T03:06:31;14.10;;;7.83;;
8632;SDS011;4354;49.832;10.746;2023-07-20T03:09:02;13.30;;;7.77;;
8632;SDS011;4354;49.832;10.746;2023-07-20T03:11:29;12.13;;;7.60;;
8632;SDS011;4354;49.832;10.746;2023-07-20T03:13:58;15.70;;;7.70;;
8632;SDS011;4354;49.832;10.746;2023-07-20T03:16:25;9.77;;;8.10;;
8632;SDS011;4354;49.832;10.746;2023-07-20T03:18:53;14.00;;;7.73;;
8632;SDS011;4354;49.832;10.746;2023-07-20T03:21:19;13.13;;;8.13;;
8632;SDS011;4354;49.832;10.746;2023-07-20T03:23:46;12.70;;;7.73;;
8632;SDS011;4354;49.832;10.746;2023-07-20T03:26:13;11.70;;;7.97;;
8632;SDS011;4354;49.832;10.746;2023-07-20T03:28:40;10.07;;;7.57;;
8632;SDS011;4354;49.832;10.746;2023-07-20T03:31:07;9.60;;;7.77;;
8632;SDS011;4354;49.832;10.746;2023-07-20T03:33:34;13.57;;;8.87;;
8632;SDS011;4354;49.832;10.746;2023-07-20T03:36:01;12.73;;;7.87;;
8632;SDS011;4354;49.832;10.746;2023-07-20T03:38:28;12.60;;;8.27;;
8632;SDS011;4354;49.832;10.746;2023-07-20T03:40:56;12.83;;;8.23;;
8632;SDS011;4354;49.832;10.746;2023-07-20T03:43:24;12.63;;;8.40;;
8632;SDS011;4354;49.832;10.746;2023-07-20T03:45:52;11.97;;;8.23;;
8632;SDS011;4354;49.832;10.746;2023-07-20T03:48:21;12.03;;;8.60;;
8632;SDS011;4354;49.832;10.746;2023-07-20T03:50:52;10.87;;;8.10;;
8632;SDS011;4354;49.832;10.746;2023-07-20T03:53:20;12.87;;;8.40;;
8632;SDS011;4354;49.832;10.746;2023-07-20T03:55:47;12.77;;;9.23;;
8632;SDS011;4354;49.832;10.746;2023-07-20T03:58:16;12.90;;;8.53;;
8632;SDS011;4354;49.832;10.746;2023-07-20T04:00:46;11.87;;;9.10;;
8632;SDS011;4354;49.832;10.746;2023-07-20T04:03:14;13.03;;;8.73;;
8632;SDS011;4354;49.832;10.746;2023-07-20T04:05:44;13.13;;;8.80;;
8632;SDS011;4354;49.832;10.746;2023-07-20T04:08:11;10.77;;;8.73;;
8632;SDS011;4354;49.832;10.746;2023-07-20T04:10:38;11.83;;;8.60;;
8632;SDS011;4354;49.832;10.746;2023-07-20T04:13:05;13.87;;;8.83;;
8632;SDS011;4354;49.832;10.746;2023-07-20T04:15:33;14.40;;;9.13;;
8632;SDS011;4354;49.832;10.746;2023-07-20T04:18:00;13.43;;;9.33;;
8632;SDS011;4354;49.832;10.746;2023-07-20T04:20:27;14.93;;;8.80;;
8632;SDS011;4354;49.832;10.746;2023-07-20T04:22:54;13.20;;;8.47;;
8632;SDS011;4354;49.832;10.746;2023-07-20T04:25:21;17.60;;;8.63;;
8632;SDS011;4354;49.832;10.746;2023-07-20T04:27:47;9.33;;;8.17;;
8632;SDS011;4354;49.832;10.746;2023-07-20T04:30:17;10.93;;;7.73;;
8632;SDS011;4354;49.832;10.746;2023-07-20T04:32:46;9.03;;;8.10;;
8632;SDS011;4354;49.832;10.746;2023-07-20T04:35:17;10.00;;;7.13;;
8632;SDS011;4354;49.832;10.746;2023-07-20T04:38:04;11.50;;;8.00;;
8632;SDS011;4354;49.832;10.746;2023-07-20T04:40:31;11.47;;;7.77;;
8632;SDS011;4354;49.832;10.746;2023-07-20T04:42:58;11.73;;;7.07;;
8632;SDS011;4354;49.832;10.746;2023-07-20T04:45:24;10.37;;;7.67;;
8632;SDS011;4354;49.832;10.746;2023-07-20T04:47:51;8.63;;;7.03;;
8632;SDS011;4354;49.832;10.746;2023-07-20T04:50:18;9.50;;;6.53;;
8632;SDS011;4354;49.832;10.746;2023-07-20T04:52:45;12.13;;;7.67;;
8632;SDS011;4354;49.832;10.746;2023-07-20T04:55:12;12.77;;;7.60;;
8632;SDS011;4354;49.832;10.746;2023-07-20T04:57:39;9.63;;;7.03;;
8632;SDS011;4354;49.832;10.746;2023-07-20T05:00:06;10.13;;;6.80;;
8632;SDS011;4354;49.832;10.746;2023-07-20T05:02:33;11.47;;;7.00;;
8632;SDS011;4354;49.832;10.746;2023-07-20T05:05:00;10.77;;;6.93;;
8632;SDS011;4354;49.832;10.746;2023-07-20T05:07:28;8.07;;;6.27;;
8632;SDS011;4354;49.832;10.746;2023-07-20T05:09:56;11.33;;;7.07;;
8632;SDS011;4354;49.832;10.746;2023-07-20T05:12:22;12.20;;;7.00;;
8632;SDS011;4354;49.832;10.746;2023-07-20T05:14:49;8.17;;;6.50;;
8632;SDS011;4354;49.832;10.746;2023-07-20T05:17:16;9.77;;;6.90;;
8632;SDS011;4354;49.832;10.746;2023-07-20T05:19:43;9.23;;;6.90;;
8632;SDS011;4354;49.832;10.746;2023-07-20T05:22:10;8.60;;;7.35;;
8632;SDS011;4354;49.832;10.746;2023-07-20T05:24:38;9.80;;;6.88;;
8632;SDS011;4354;49.832;10.746;2023-07-20T05:27:05;8.27;;;7.05;;
8632;SDS011;4354;49.832;10.746;2023-07-20T05:29:32;9.40;;;6.97;;
8632;SDS011;4354;49.832;10.746;2023-07-20T05:31:59;9.98;;;7.13;;
8632;SDS011;4354;49.832;10.746;2023-07-20T05:34:26;7.55;;;6.00;;
8632;SDS011;4354;49.832;10.746;2023-07-20T05:36:53;12.75;;;6.78;;
8632;SDS011;4354;49.832;10.746;2023-07-20T05:39:19;9.23;;;6.40;;
8632;SDS011;4354;49.832;10.746;2023-07-20T05:41:46;9.80;;;6.22;;
8632;SDS011;4354;49.832;10.746;2023-07-20T05:44:13;7.18;;;5.07;;
8632;SDS011;4354;49.832;10.746;2023-07-20T05:46:40;11.02;;;6.05;;
8632;SDS011;4354;49.832;10.746;2023-07-20T05:49:22;8.48;;;5.05;;
8632;SDS011;4354;49.832;10.746;2023-07-20T05:51:49;8.40;;;4.80;;
8632;SDS011;4354;49.832;10.746;2023-07-20T05:54:16;8.38;;;4.75;;
8632;SDS011;4354;49.832;10.746;2023-07-20T05:56:42;7.97;;;4.32;;
8632;SDS011;4354;49.832;10.746;2023-07-20T05:59:09;6.05;;;4.20;;
8632;SDS011;4354;49.832;10.746;2023-07-20T06:01:36;5.03;;;4.15;;
8632;SDS011;4354;49.832;10.746;2023-07-20T06:04:03;5.68;;;3.97;;
8632;SDS011;4354;49.832;10.746;2023-07-20T06:06:30;4.53;;;3.42;;
8632;SDS011;4354;49.832;10.746;2023-07-20T06:08:57;5.65;;;4.03;;
8632;SDS011;4354;49.832;10.746;2023-07-20T06:11:24;9.40;;;4.60;;
8632;SDS011;4354;49.832;10.746;2023-07-20T06:13:51;8.13;;;3.83;;
8632;SDS011;4354;49.832;10.746;2023-07-20T06:16:18;6.53;;;3.75;;
8632;SDS011;4354;49.832;10.746;2023-07-20T06:18:45;5.03;;;3.40;;
8632;SDS011;4354;49.832;10.746;2023-07-20T06:21:12;7.70;;;3.85;;
8632;SDS011;4354;49.832;10.746;2023-07-20T06:23:39;9.65;;;4.18;;
8632;SDS011;4354;49.832;10.746;2023-07-20T06:26:06;7.25;;;4.00;;
8632;SDS011;4354;49.832;10.746;2023-07-20T06:28:33;5.20;;;4.15;;
8632;SDS011;4354;49.832;10.746;2023-07-20T06:31:01;7.13;;;3.65;;
8632;SDS011;4354;49.832;10.746;2023-07-20T06:33:30;4.57;;;3.63;;
8632;SDS011;4354;49.832;10.746;2023-07-20T06:36:00;4.88;;;3.80;;
8632;SDS011;4354;49.832;10.746;2023-07-20T06:38:26;4.70;;;3.10;;
8632;SDS011;4354;49.832;10.746;2023-07-20T06:40:56;5.78;;;3.60;;
8632;SDS011;4354;49.832;10.746;2023-07-20T06:43:43;4.97;;;3.10;;
8632;SDS011;4354;49.832;10.746;2023-07-20T06:46:13;3.40;;;2.90;;
8632;SDS011;4354;49.832;10.746;2023-07-20T06:48:40;6.85;;;3.38;;
8632;SDS011;4354;49.832;10.746;2023-07-20T06:51:09;6.95;;;3.17;;
8632;SDS011;4354;49.832;10.746;2023-07-20T06:53:36;5.63;;;3.15;;
8632;SDS011;4354;49.832;10.746;2023-07-20T06:56:03;5.28;;;3.90;;
8632;SDS011;4354;49.832;10.746;2023-07-20T06:58:30;6.60;;;3.20;;
8632;SDS011;4354;49.832;10.746;2023-07-20T07:00:56;6.22;;;2.90;;
8632;SDS011;4354;49.832;10.746;2023-07-20T07:03:23;5.55;;;3.30;;
8632;SDS011;4354;49.832;10.746;2023-07-20T07:05:54;6.78;;;3.30;;
8632;SDS011;4354;49.832;10.746;2023-07-20T07:08:22;3.70;;;2.30;;
8632;SDS011;4354;49.832;10.746;2023-07-20T07:10:49;5.47;;;2.50;;
8632;SDS011;4354;49.832;10.746;2023-07-20T07:13:16;4.20;;;1.83;;
8632;SDS011;4354;49.832;10.746;2023-07-20T07:15:43;5.32;;;2.42;;
8632;SDS011;4354;49.832;10.746;2023-07-20T07:18:10;5.10;;;2.10;;
8632;SDS011;4354;49.832;10.746;2023-07-20T07:20:37;3.38;;;2.13;;
8632;SDS011;4354;49.832;10.746;2023-07-20T07:23:04;5.38;;;2.10;;
8632;SDS011;4354;49.832;10.746;2023-07-20T07:25:31;7.72;;;2.13;;
8632;SDS011;4354;49.832;10.746;2023-07-20T07:27:58;4.70;;;1.98;;
8632;SDS011;4354;49.832;10.746;2023-07-20T07:30:25;2.55;;;1.88;;
8632;SDS011;4354;49.832;10.746;2023-07-20T07:32:52;4.65;;;2.20;;
8632;SDS011;4354;49.832;10.746;2023-07-20T07:35:19;5.15;;;1.90;;
8632;SDS011;4354;49.832;10.746;2023-07-20T07:37:45;4.43;;;1.85;;
8632;SDS011;4354;49.832;10.746;2023-07-20T07:40:32;3.28;;;1.80;;
8632;SDS011;4354;49.832;10.746;2023-07-20T07:42:59;3.38;;;2.03;;
8632;SDS011;4354;49.832;10.746;2023-07-20T07:45:26;3.33;;;1.95;;
8632;SDS011;4354;49.832;10.746;2023-07-20T07:47:53;4.45;;;1.80;;
8632;SDS011;4354;49.832;10.746;2023-07-20T07:50:20;4.50;;;1.75;;
8632;SDS011;4354;49.832;10.746;2023-07-20T07:52:46;3.70;;;1.70;;
8632;SDS011;4354;49.832;10.746;2023-07-20T07:55:13;4.38;;;1.50;;
8632;SDS011;4354;49.832;10.746;2023-07-20T07:57:43;2.17;;;1.52;;
8632;SDS011;4354;49.832;10.746;2023-07-20T08:00:10;3.20;;;1.42;;
8632;SDS011;4354;49.832;10.746;2023-07-20T08:02:41;2.47;;;1.48;;
8632;SDS011;4354;49.832;10.746;2023-07-20T08:05:09;3.35;;;1.40;;
8632;SDS011;4354;49.832;10.746;2023-07-20T08:07:36;2.78;;;1.70;;
8632;SDS011;4354;49.832;10.746;2023-07-20T08:10:03;2.70;;;1.55;;
8632;SDS011;4354;49.832;10.746;2023-07-20T08:12:31;4.35;;;1.67;;
8632;SDS011;4354;49.832;10.746;2023-07-20T08:14:58;4.32;;;1.52;;
8632;SDS011;4354;49.832;10.746;2023-07-20T08:17:25;2.90;;;1.63;;
8632;SDS011;4354;49.832;10.746;2023-07-20T08:19:52;4.78;;;1.52;;
8632;SDS011;4354;49.832;10.746;2023-07-20T08:22:19;5.00;;;1.60;;
8632;SDS011;4354;49.832;10.746;2023-07-20T08:24:45;6.22;;;1.90;;
8632;SDS011;4354;49.832;10.746;2023-07-20T08:27:12;3.03;;;1.70;;
8632;SDS011;4354;49.832;10.746;2023-07-20T08:29:39;2.22;;;1.80;;
8632;SDS011;4354;49.832;10.746;2023-07-20T08:32:06;2.55;;;1.42;;
8632;SDS011;4354;49.832;10.746;2023-07-20T08:34:33;5.20;;;1.80;;
8632;SDS011;4354;49.832;10.746;2023-07-20T08:36:59;6.13;;;1.80;;
8632;SDS011;4354;49.832;10.746;2023-07-20T08:39:26;5.88;;;1.60;;
8632;SDS011;4354;49.832;10.746;2023-07-20T08:41:53;3.95;;;1.83;;
8632;SDS011;4354;49.832;10.746;2023-07-20T08:44:21;3.28;;;2.00;;
8632;SDS011;4354;49.832;10.746;2023-07-20T08:46:49;3.50;;;1.73;;
8632;SDS011;4354;49.832;10.746;2023-07-20T08:49:17;3.83;;;1.70;;
8632;SDS011;4354;49.832;10.746;2023-07-20T08:51:45;2.72;;;1.80;;
8632;SDS011;4354;49.832;10.746;2023-07-20T08:54:12;4.18;;;1.80;;
8632;SDS011;4354;49.832;10.746;2023-07-20T08:56:40;2.97;;;1.90;;
8632;SDS011;4354;49.832;10.746;2023-07-20T08:59:08;5.82;;;2.15;;
8632;SDS011;4354;49.832;10.746;2023-07-20T09:01:35;7.32;;;2.30;;
8632;SDS011;4354;49.832;10.746;2023-07-20T09:04:05;3.08;;;2.10;;
8632;SDS011;4354;49.832;10.746;2023-07-20T09:06:32;7.07;;;1.85;;
8632;SDS011;4354;49.832;10.746;2023-07-20T09:09:01;3.22;;;1.70;;
8632;SDS011;4354;49.832;10.746;2023-07-20T09:11:28;4.13;;;1.90;;
8632;SDS011;4354;49.832;10.746;2023-07-20T09:14:02;5.90;;;1.90;;
8632;SDS011;4354;49.832;10.746;2023-07-20T09:16:39;3.95;;;2.03;;
8632;SDS011;4354;49.832;10.746;2023-07-20T09:19:17;2.75;;;1.85;;
8632;SDS011;4354;49.832;10.746;2023-07-20T09:21:48;2.40;;;1.60;;
8632;SDS011;4354;49.832;10.746;2023-07-20T09:24:16;5.53;;;1.98;;
8632;SDS011;4354;49.832;10.746;2023-07-20T09:26:44;5.15;;;1.80;;
8632;SDS011;4354;49.832;10.746;2023-07-20T09:29:14;4.90;;;1.95;;
8632;SDS011;4354;49.832;10.746;2023-07-20T09:32:00;3.88;;;1.90;;
8632;SDS011;4354;49.832;10.746;2023-07-20T09:34:28;2.83;;;2.08;;
8632;SDS011;4354;49.832;10.746;2023-07-20T09:37:00;4.00;;;2.03;;
8632;SDS011;4354;49.832;10.746;2023-07-20T09:39:29;4.68;;;1.92;;
8632;SDS011;4354;49.832;10.746;2023-07-20T09:41:59;2.95;;;1.90;;
8632;SDS011;4354;49.832;10.746;2023-07-20T09:44:30;4.00;;;1.98;;
8632;SDS011;4354;49.832;10.746;2023-07-20T09:47:02;3.38;;;1.55;;
8632;SDS011;4354;49.832;10.746;2023-07-20T09:49:31;4.57;;;1.75;;
8632;SDS011;4354;49.832;10.746;2023-07-20T09:52:18;7.03;;;1.90;;
8632;SDS011;4354;49.832;10.746;2023-07-20T09:54:48;3.15;;;1.67;;
8632;SDS011;4354;49.832;10.746;2023-07-20T09:57:16;2.80;;;1.90;;
8632;SDS011;4354;49.832;10.746;2023-07-20T09:59:43;3.63;;;1.75;;
8632;SDS011;4354;49.832;10.746;2023-07-20T10:02:32;4.50;;;2.10;;
8632;SDS011;4354;49.832;10.746;2023-07-20T10:05:00;4.05;;;1.80;;
8632;SDS011;4354;49.832;10.746;2023-07-20T10:07:30;5.18;;;2.15;;
8632;SDS011;4354;49.832;10.746;2023-07-20T10:09:59;6.38;;;2.10;;
8632;SDS011;4354;49.832;10.746;2023-07-20T10:12:28;4.22;;;1.85;;
8632;SDS011;4354;49.832;10.746;2023-07-20T10:15:03;5.65;;;2.20;;
8632;SDS011;4354;49.832;10.746;2023-07-20T10:17:33;4.78;;;1.88;;
8632;SDS011;4354;49.832;10.746;2023-07-20T10:20:01;2.03;;;1.70;;
8632;SDS011;4354;49.832;10.746;2023-07-20T10:22:31;3.00;;;1.90;;
8632;SDS011;4354;49.832;10.746;2023-07-20T10:25:07;2.22;;;1.67;;
8632;SDS011;4354;49.832;10.746;2023-07-20T10:27:35;2.47;;;1.50;;
8632;SDS011;4354;49.832;10.746;2023-07-20T10:30:02;3.25;;;1.80;;
8632;SDS011;4354;49.832;10.746;2023-07-20T10:32:31;2.40;;;1.70;;
8632;SDS011;4354;49.832;10.746;2023-07-20T10:34:59;6.43;;;1.92;;
8632;SDS011;4354;49.832;10.746;2023-07-20T10:40:28;5.10;;;1.88;;
8632;SDS011;4354;49.832;10.746;2023-07-20T10:42:57;2.40;;;1.55;;
8632;SDS011;4354;49.832;10.746;2023-07-20T10:45:45;4.60;;;1.88;;
8632;SDS011;4354;49.832;10.746;2023-07-20T10:48:23;2.20;;;1.65;;
8632;SDS011;4354;49.832;10.746;2023-07-20T10:53:40;5.85;;;1.83;;
8632;SDS011;4354;49.832;10.746;2023-07-20T10:56:13;2.22;;;1.88;;
8632;SDS011;4354;49.832;10.746;2023-07-20T10:58:45;2.30;;;1.52;;
8632;SDS011;4354;49.832;10.746;2023-07-20T11:01:18;4.25;;;2.00;;
8632;SDS011;4354;49.832;10.746;2023-07-20T11:03:49;2.72;;;1.45;;
8632;SDS011;4354;49.832;10.746;2023-07-20T11:09:09;2.50;;;1.58;;
8632;SDS011;4354;49.832;10.746;2023-07-20T11:11:46;1.92;;;1.48;;
8632;SDS011;4354;49.832;10.746;2023-07-20T11:14:21;3.97;;;1.50;;
8632;SDS011;4354;49.832;10.746;2023-07-20T11:16:52;2.88;;;1.48;;
8632;SDS011;4354;49.832;10.746;2023-07-20T11:19:21;4.22;;;1.67;;
8632;SDS011;4354;49.832;10.746;2023-07-20T11:21:55;1.88;;;1.40;;
8632;SDS011;4354;49.832;10.746;2023-07-20T11:24:28;4.80;;;1.80;;
8632;SDS011;4354;49.832;10.746;2023-07-20T11:26:56;4.72;;;1.60;;
8632;SDS011;4354;49.832;10.746;2023-07-20T11:29:23;1.65;;;1.50;;
8632;SDS011;4354;49.832;10.746;2023-07-20T11:31:58;2.75;;;1.52;;
8632;SDS011;4354;49.832;10.746;2023-07-20T11:34:25;1.75;;;1.50;;
8632;SDS011;4354;49.832;10.746;2023-07-20T11:36:54;4.22;;;1.75;;
8632;SDS011;4354;49.832;10.746;2023-07-20T11:39:23;2.35;;;1.60;;
8632;SDS011;4354;49.832;10.746;2023-07-20T11:41:52;3.55;;;1.58;;
8632;SDS011;4354;49.832;10.746;2023-07-20T11:44:24;2.95;;;1.60;;
8632;SDS011;4354;49.832;10.746;2023-07-20T11:49:41;1.98;;;1.40;;
8632;SDS011;4354;49.832;10.746;2023-07-20T11:52:10;3.20;;;1.40;;
8632;SDS011;4354;49.832;10.746;2023-07-20T11:54:39;4.35;;;1.63;;
8632;SDS011;4354;49.832;10.746;2023-07-20T11:57:18;4.22;;;1.60;;
8632;SDS011;4354;49.832;10.746;2023-07-20T11:59:53;2.13;;;1.33;;
8632;SDS011;4354;49.832;10.746;2023-07-20T12:02:24;3.78;;;1.50;;
8632;SDS011;4354;49.832;10.746;2023-07-20T12:04:56;5.93;;;1.63;;
8632;SDS011;4354;49.832;10.746;2023-07-20T12:07:25;3.33;;;1.30;;
8632;SDS011;4354;49.832;10.746;2023-07-20T12:10:03;2.00;;;1.60;;
8632;SDS011;4354;49.832;10.746;2023-07-20T12:12:39;2.45;;;1.40;;
8632;SDS011;4354;49.832;10.746;2023-07-20T12:15:20;2.75;;;1.55;;
8632;SDS011;4354;49.832;10.746;2023-07-20T12:17:58;2.40;;;1.60;;
8632;SDS011;4354;49.832;10.746;2023-07-20T12:23:03;2.33;;;1.13;;
8632;SDS011;4354;49.832;10.746;2023-07-20T12:25:37;2.00;;;1.35;;
8632;SDS011;4354;49.832;10.746;2023-07-20T12:28:09;3.17;;;1.40;;
8632;SDS011;4354;49.832;10.746;2023-07-20T12:30:40;2.47;;;1.30;;
8632;SDS011;4354;49.832;10.746;2023-07-20T12:33:08;2.30;;;1.50;;
8632;SDS011;4354;49.832;10.746;2023-07-20T12:35:35;3.00;;;1.40;;
8632;SDS011;4354;49.832;10.746;2023-07-20T12:38:02;1.85;;;1.48;;
8632;SDS011;4354;49.832;10.746;2023-07-20T12:40:29;4.85;;;1.50;;
8632;SDS011;4354;49.832;10.746;2023-07-20T12:42:56;4.88;;;1.67;;
8632;SDS011;4354;49.832;10.746;2023-07-20T12:45:24;2.00;;;1.40;;
8632;SDS011;4354;49.832;10.746;2023-07-20T12:47:50;8.00;;;1.70;;
8632;SDS011;4354;49.832;10.746;2023-07-20T12:50:17;2.60;;;1.52;;
8632;SDS011;4354;49.832;10.746;2023-07-20T12:52:44;2.42;;;1.52;;
8632;SDS011;4354;49.832;10.746;2023-07-20T12:55:11;3.35;;;1.40;;
8632;SDS011;4354;49.832;10.746;2023-07-20T12:57:38;1.48;;;1.23;;
8632;SDS011;4354;49.832;10.746;2023-07-20T13:00:05;5.53;;;1.75;;
8632;SDS011;4354;49.832;10.746;2023-07-20T13:02:37;6.88;;;1.42;;
8632;SDS011;4354;49.832;10.746;2023-07-20T13:05:05;2.25;;;1.60;;
8632;SDS011;4354;49.832;10.746;2023-07-20T13:07:32;2.85;;;1.30;;
8632;SDS011;4354;49.832;10.746;2023-07-20T13:10:04;1.30;;;1.20;;
8632;SDS011;4354;49.832;10.746;2023-07-20T13:12:32;1.90;;;1.20;;
8632;SDS011;4354;49.832;10.746;2023-07-20T13:15:00;3.92;;;1.42;;
8632;SDS011;4354;49.832;10.746;2023-07-20T13:17:35;1.98;;;1.30;;
8632;SDS011;4354;49.832;10.746;2023-07-20T13:20:05;3.10;;;1.35;;
8632;SDS011;4354;49.832;10.746;2023-07-20T13:22:34;3.50;;;1.23;;
8632;SDS011;4354;49.832;10.746;2023-07-20T13:25:01;1.80;;;1.33;;
8632;SDS011;4354;49.832;10.746;2023-07-20T13:27:28;2.67;;;1.33;;
8632;SDS011;4354;49.832;10.746;2023-07-20T13:29:58;2.97;;;1.50;;
8632;SDS011;4354;49.832;10.746;2023-07-20T13:32:29;1.60;;;1.48;;
8632;SDS011;4354;49.832;10.746;2023-07-20T13:34:59;4.78;;;1.55;;
8632;SDS011;4354;49.832;10.746;2023-07-20T13:37:26;3.03;;;1.50;;
8632;SDS011;4354;49.832;10.746;2023-07-20T13:39:54;2.30;;;1.40;;
8632;SDS011;4354;49.832;10.746;2023-07-20T13:42:23;2.45;;;1.48;;
8632;SDS011;4354;49.832;10.746;2023-07-20T13:44:50;1.88;;;1.50;;
8632;SDS011;4354;49.832;10.746;2023-07-20T13:47:17;2.78;;;1.50;;
8632;SDS011;4354;49.832;10.746;2023-07-20T13:49:46;2.88;;;1.38;;
8632;SDS011;4354;49.832;10.746;2023-07-20T13:52:14;2.47;;;1.30;;
8632;SDS011;4354;49.832;10.746;2023-07-20T13:54:44;3.20;;;1.30;;
8632;SDS011;4354;49.832;10.746;2023-07-20T13:57:14;3.60;;;1.40;;
8632;SDS011;4354;49.832;10.746;2023-07-20T13:59:42;3.00;;;1.33;;
8632;SDS011;4354;49.832;10.746;2023-07-20T14:02:11;1.70;;;1.40;;
8632;SDS011;4354;49.832;10.746;2023-07-20T14:04:41;1.55;;;1.25;;
8632;SDS011;4354;49.832;10.746;2023-07-20T14:07:08;1.92;;;1.45;;
8632;SDS011;4354;49.832;10.746;2023-07-20T14:09:35;1.58;;;1.13;;
8632;SDS011;4354;49.832;10.746;2023-07-20T14:12:22;5.95;;;1.13;;
8632;SDS011;4354;49.832;10.746;2023-07-20T14:14:49;2.03;;;1.40;;
8632;SDS011;4354;49.832;10.746;2023-07-20T14:17:16;2.13;;;1.33;;
8632;SDS011;4354;49.832;10.746;2023-07-20T14:19:42;2.92;;;1.60;;
8632;SDS011;4354;49.832;10.746;2023-07-20T14:22:09;2.05;;;1.30;;
8632;SDS011;4354;49.832;10.746;2023-07-20T14:24:38;3.97;;;1.30;;
8632;SDS011;4354;49.832;10.746;2023-07-20T14:27:04;3.50;;;1.40;;
8632;SDS011;4354;49.832;10.746;2023-07-20T14:29:31;5.40;;;1.40;;
8632;SDS011;4354;49.832;10.746;2023-07-20T14:31:58;1.92;;;1.35;;
8632;SDS011;4354;49.832;10.746;2023-07-20T14:34:26;2.25;;;1.35;;
8632;SDS011;4354;49.832;10.746;2023-07-20T14:36:52;4.80;;;1.45;;
8632;SDS011;4354;49.832;10.746;2023-07-20T14:39:20;3.50;;;1.40;;
8632;SDS011;4354;49.832;10.746;2023-07-20T14:41:46;4.40;;;1.55;;
8632;SDS011;4354;49.832;10.746;2023-07-20T14:44:15;4.38;;;1.35;;
8632;SDS011;4354;49.832;10.746;2023-07-20T14:46:42;1.38;;;1.20;;
8632;SDS011;4354;49.832;10.746;2023-07-20T14:49:25;1.40;;;1.20;;
8632;SDS011;4354;49.832;10.746;2023-07-20T14:51:52;1.73;;;1.20;;
8632;SDS011;4354;49.832;10.746;2023-07-20T14:54:19;3.30;;;1.30;;
8632;SDS011;4354;49.832;10.746;2023-07-20T14:56:49;1.77;;;1.40;;
8632;SDS011;4354;49.832;10.746;2023-07-20T14:59:19;2.05;;;1.58;;
8632;SDS011;4354;49.832;10.746;2023-07-20T15:01:46;1.30;;;1.20;;
8632;SDS011;4354;49.832;10.746;2023-07-20T15:04:13;1.80;;;1.13;;
8632;SDS011;4354;49.832;10.746;2023-07-20T15:06:41;13.45;;;2.05;;
8632;SDS011;4354;49.832;10.746;2023-07-20T15:09:08;1.48;;;1.00;;
8632;SDS011;4354;49.832;10.746;2023-07-20T15:11:35;2.80;;;1.15;;
8632;SDS011;4354;49.832;10.746;2023-07-20T15:14:03;3.33;;;1.48;;
8632;SDS011;4354;49.832;10.746;2023-07-20T15:16:29;4.63;;;1.10;;
8632;SDS011;4354;49.832;10.746;2023-07-20T15:18:56;2.60;;;1.15;;
8632;SDS011;4354;49.832;10.746;2023-07-20T15:21:23;1.85;;;1.15;;
8632;SDS011;4354;49.832;10.746;2023-07-20T15:23:50;1.95;;;1.00;;
8632;SDS011;4354;49.832;10.746;2023-07-20T15:26:17;2.10;;;1.20;;
8632;SDS011;4354;49.832;10.746;2023-07-20T15:28:44;1.17;;;1.02;;
8632;SDS011;4354;49.832;10.746;2023-07-20T15:31:11;1.85;;;1.00;;